Airfield :
LOGIN :

Register | Disclaimer

   EN    FR    IT 

 










Legend :    VFR   Marginal VFR   IFR   Intensive IFR   Very Intensive IFR
Visi :
Ceiling :
>= 8 km
>= 3000ft
5 to 8 km
1000 to 3000 ft
1500m to 5 km
500 to 1000 ft
800 to 1500m
200 to 500 ft
< 800m
< 200 ft
Symbols :   Thunderstorms  Fog  Heavy snow  Heavy precipitations  Wind > 20 kt
SIGMETs :     Misc.  Thunderstorms  Icing  Turbulence  Mountain Waves  Volcanic Ashes






- Airport Elevation : 177 ft
- IATA code : BRI


LIBD - Palese Macchie Bari

CURRENT METAR :
  • 220250Z 25003KT 6000 SCT010 17/16 Q1022

EXPIRED METARs :
  • 220220Z 23004KT 7000 FEW010 16/16 Q1021
  • 220150Z 23004KT 6000 FEW006 17/16 Q1021
  • 220120Z 26004KT 6000 FEW003 17/16 Q1022
  • 220050Z 28004KT 6000 FEW003 16/16 Q1022
  • 220020Z 28004KT 6000 FEW004 15/15 Q1022
  • 212350Z 27004KT 7000 FEW004 15/14 Q1022

TAF TAF LIBD
Valid from the 22 at 00:00 until the 23 at 00:00 UTC


212300Z 2200/2224 VRB05KT CAVOK
TEMPO 2200/2206 2000 BCFG
BECMG 2210/2212 03010KT



MET'MAP, your aeronautical weather chart ! - Copyright ORBIFLY December 2007 - Disclaimer

ORBIFLY MET'MAP TEAM :

Programming & Development : Alexandra Zaïnal
Concept & Development : Baudouin d'Aumeries
Co-Development & Prog : Marc-Olivier Méhu
Technical & hardware support : Manuel Goepfert

Contact : metmap@orbifly.com




SOURCES & CREDITS :

   NOAA